La Honda, CA (94020)

10:46 PM PST on December 26, 2014 (GMT -0800)
Tar water creek ridge on Alpine Road, La Honda | Change Station
CLOSE
Current Station
Personal Weather Station
Location: La Honda, CA
Elevation: 1276 ft
Nearby Weather Stations

Elev 1276 ft 37.29 °N, 122.23 °W | Updated 6 minutes ago

Clear
Clear
46.9 °F
Feels Like 47 °F
N
0.0
Wind Variable Wind from WSW
Gusts 5.0 mph

Today
High -- | Low -- °F
--% Chance of Precip.
Yesterday
High -- | Low -- °F
Precip. -- in
7:21 AM 4:57 PM
Waxing Crescent, 33% visible
Pressure 30.27 in
Visibility 10.0 miles
Clouds Clear
Windchill 47 °F
Dew Point 27 °F
Humidity 47%
Rainfall 0.00 in
Snow Depth Not available.
UV 0 out of 12
Pollen 5.90 out of 12
Air Quality Not available.
Flu Activity Not available.
METAR KNUQ 270556Z 22003KT 10SM CLR 07/00 A3026 RMK AO2 SLP248 T00720000 10133 20072 51011

More Conditions Fewer Conditions

Pressure 30.27 in
Visibility 10.0 miles
Clouds Clear
Windchill 47 °F
Dew Point 27 °F
Humidity 47%
Rainfall 0.00 in
Snow Depth Not available.
UV 0 out of 12
Pollen 5.90 out of 12
Air Quality Not available.
Flu Activity Not available.
METAR KNUQ 270556Z 22003KT 10SM CLR 07/00 A3026 RMK AO2 SLP248 T00720000 10133 20072 51011

More Conditions Fewer Conditions

10-Day Weather Forecast

Almanac

Astronomy

Dec. 26, 2014 Rise Set
Actual Time
Civil Twilight
Nautical Twilight
Astronomical Twilight
Moon
Length of Visible Light
Length of Day
Tomorrow will be .
, % of the Moon is Illuminated

Today's Extremes

State Highs State Lows

Community

WunderPhotos

Upload Photos

1,780,863 photos uploaded!

WunderBlogs® & News

Nearby

Air Quality

  Air Quality AQ Index Pollutant
Not available.

Snow Depth

Station Depth Elevation

Earthquake Activity

City Distance Mag. Time & Date
Minimum magnitude displayed is 2.5.

Coastal Water Temperatures

Place Temperature

Nearby Weather Stations